Terminal Aerodrome Forecast
Issued by NWS

Home | Current Version | Previous Version | Text Only | Print | Product List | Glossary On
Versions: 1 2 3 4 5 6 7 8 9 10 11 12 13 14 15 16 17 18
000
FTUS43 KIND 202324
TAFLAF
TAF
KLAF 202324Z 2100/2124 20012KT P6SM SCT250 WS020/23045KT
     FM211500 23013G21KT P6SM SCT050 BKN250
     FM211900 26013G21KT P6SM BKN040
     FM212100 30011G20KT P6SM OVC035
      AMD LTD TO CLD VIS AND WIND 2102/2114=

USA.gov is the U.S. government's official web portal to all federal, state and local government web resources and services.